createdAt,value
2018-08-06T00:00:28.775Z,101608.63
2018-08-06T00:02:57.175Z,101606.91
2018-08-06T00:05:25.318Z,101602.38
2018-08-06T00:07:53.765Z,101611.30
2018-08-06T00:10:23.676Z,101610.17
2018-08-06T00:12:52.060Z,101602.34
2018-08-06T00:15:20.395Z,101611.05
2018-08-06T00:17:48.505Z,101602.53
2018-08-06T00:20:17.268Z,101606.64
2018-08-06T00:22:45.687Z,101602.78
2018-08-06T00:25:16.015Z,101600.61
2018-08-06T00:27:44.528Z,101608.22
2018-08-06T00:30:16.650Z,101602.34
2018-08-06T00:32:45.763Z,101600.26
2018-08-06T00:35:15.859Z,101594.81
2018-08-06T00:37:44.449Z,101598.41
2018-08-06T00:40:16.001Z,101595.45
2018-08-06T00:42:45.031Z,101598.48
2018-08-06T00:45:15.427Z,101591.22
2018-08-06T00:47:43.902Z,101590.07
2018-08-06T00:50:13.211Z,101582.44
2018-08-06T00:52:41.725Z,101579.78
2018-08-06T00:55:13.738Z,101589.25
2018-08-06T00:57:42.450Z,101590.05
2018-08-06T01:00:15.798Z,101586.59
2018-08-06T01:02:44.475Z,101586.50
2018-08-06T01:05:13.735Z,101587.95
2018-08-06T01:07:42.553Z,101586.44
2018-08-06T01:10:12.438Z,101584.88
2018-08-06T01:12:41.177Z,101579.73
2018-08-06T01:15:11.085Z,101584.97
2018-08-06T01:17:39.463Z,101580.94
2018-08-06T01:20:09.755Z,101576.75
2018-08-06T01:22:38.488Z,101577.53
2018-08-06T01:25:06.612Z,101575.59
2018-08-06T01:27:35.695Z,101571.81
2018-08-06T01:30:04.128Z,101564.64
2018-08-06T01:32:32.901Z,101568.63
2018-08-06T01:35:01.306Z,101570.91
2018-08-06T01:37:29.935Z,101563.38
2018-08-06T01:39:58.787Z,101565.88
2018-08-06T01:42:27.477Z,101561.33
2018-08-06T01:44:55.869Z,101558.28
2018-08-06T01:47:24.819Z,101556.19
2018-08-06T01:49:53.468Z,101555.94
2018-08-06T01:52:21.782Z,101550.39
2018-08-06T01:54:50.531Z,101553.52
2018-08-06T01:57:18.953Z,101551.09
2018-08-06T01:59:47.712Z,101550.00
2018-08-06T02:02:15.815Z,101547.54
2018-08-06T02:04:44.493Z,101546.84
2018-08-06T02:07:12.831Z,101549.82
2018-08-06T02:09:40.945Z,101547.36
2018-08-06T02:12:09.372Z,101536.11
2018-08-06T02:14:37.801Z,101537.00
2018-08-06T02:17:06.197Z,101532.55
2018-08-06T02:19:34.616Z,101530.97
2018-08-06T02:22:02.744Z,101523.70
2018-08-06T02:24:30.836Z,101519.40
2018-08-06T02:26:59.228Z,101516.98
2018-08-06T02:29:27.608Z,101516.09
2018-08-06T02:31:55.724Z,101515.51
2018-08-06T02:34:24.708Z,101505.41
2018-08-06T02:36:53.069Z,101508.75
2018-08-06T02:39:21.620Z,101507.80
2018-08-06T02:41:50.060Z,101506.91
2018-08-06T02:44:18.988Z,101502.50
2018-08-06T02:46:47.365Z,101501.69
2018-08-06T02:49:15.972Z,101501.06
2018-08-06T02:51:44.622Z,101505.28
2018-08-06T02:54:12.956Z,101498.78
2018-08-06T02:56:41.656Z,101503.84
2018-08-06T02:59:10.025Z,101503.11
2018-08-06T03:01:38.392Z,101507.33
2018-08-06T03:04:06.846Z,101507.58
2018-08-06T03:06:34.949Z,101510.92
2018-08-06T03:09:05.292Z,101505.26
2018-08-06T03:11:34.027Z,101507.34
2018-08-06T03:14:02.740Z,101506.27
2018-08-06T03:16:31.560Z,101504.83
2018-08-06T03:18:59.896Z,101502.88
2018-08-06T03:21:29.464Z,101502.13
2018-08-06T03:23:57.845Z,101503.63
2018-08-06T03:26:26.195Z,101504.25
2018-08-06T03:28:54.833Z,101497.98
2018-08-06T03:31:23.322Z,101500.33
2018-08-06T03:33:52.009Z,101498.59
2018-08-06T03:36:20.366Z,101493.64
2018-08-06T03:38:49.130Z,101495.73
2018-08-06T03:41:18.428Z,101487.96
2018-08-06T03:43:47.065Z,101491.80
2018-08-06T03:46:15.940Z,101492.81
2018-08-06T03:48:44.045Z,101491.63
2018-08-06T03:51:12.471Z,101486.22
2018-08-06T03:53:40.867Z,101486.97
2018-08-06T03:56:09.326Z,101485.61
2018-08-06T03:58:37.856Z,101490.67
2018-08-06T04:01:06.288Z,101496.24
2018-08-06T04:03:34.649Z,101497.84
2018-08-06T04:06:02.760Z,101499.95
2018-08-06T04:08:31.028Z,101498.88
2018-08-06T04:10:59.460Z,101497.54
2018-08-06T04:13:28.472Z,101494.98
2018-08-06T04:15:56.793Z,101493.27
2018-08-06T04:18:25.769Z,101492.05
2018-08-06T04:20:53.892Z,101488.45
2018-08-06T04:23:22.532Z,101487.23
2018-08-06T04:25:51.019Z,101486.72
2018-08-06T04:28:19.772Z,101493.12
2018-08-06T04:30:48.225Z,101485.95
2018-08-06T04:33:17.000Z,101490.52
2018-08-06T04:35:45.122Z,101489.62
2018-08-06T04:38:14.105Z,101494.81
2018-08-06T04:40:42.544Z,101494.81
2018-08-06T04:43:12.197Z,101496.54
2018-08-06T04:45:40.827Z,101487.75
2018-08-06T04:48:09.188Z,101488.09
2018-08-06T04:50:37.643Z,101475.35
2018-08-06T04:53:05.950Z,101482.72
2018-08-06T04:55:34.584Z,101475.68
2018-08-06T04:58:02.820Z,101480.38
2018-08-06T05:00:31.024Z,101479.16
2018-08-06T05:02:59.719Z,101483.69
2018-08-06T05:05:28.018Z,101474.64
2018-08-06T05:07:56.393Z,101479.20
2018-08-06T05:10:24.797Z,101476.95
2018-08-06T05:12:52.909Z,101474.13
2018-08-06T05:15:21.451Z,101476.31
2018-08-06T05:17:49.851Z,101480.95
2018-08-06T05:20:18.109Z,101481.99
2018-08-06T05:22:46.279Z,101481.64
2018-08-06T05:25:14.624Z,101483.52
2018-08-06T05:27:42.839Z,101485.64
2018-08-06T05:30:12.731Z,101482.11
2018-08-06T05:32:40.922Z,101485.95
2018-08-06T05:35:09.043Z,101482.36
2018-08-06T05:37:37.605Z,101468.48
2018-08-06T05:40:06.889Z,101476.72
2018-08-06T05:42:35.479Z,101476.75
2018-08-06T05:45:05.317Z,101478.91
2018-08-06T05:47:33.448Z,101478.78
2018-08-06T05:50:02.169Z,101481.80
2018-08-06T05:52:30.309Z,101482.50
2018-08-06T05:54:59.028Z,101484.08
2018-08-06T05:57:27.749Z,101484.85
2018-08-06T05:59:55.969Z,101471.00
2018-08-06T06:02:24.120Z,101472.61
2018-08-06T06:04:52.585Z,101474.67
2018-08-06T06:07:21.241Z,101478.48
2018-08-06T06:09:49.616Z,101481.59
2018-08-06T06:12:18.153Z,101483.42
2018-08-06T06:14:46.602Z,101479.47
2018-08-06T06:17:16.641Z,101477.55
2018-08-06T06:19:45.032Z,101475.07
2018-08-06T06:22:13.479Z,101473.86
2018-08-06T06:24:41.904Z,101475.91
2018-08-06T06:27:10.069Z,101470.09
2018-08-06T06:29:38.196Z,101473.30
2018-08-06T06:32:06.324Z,101474.91
2018-08-06T06:34:34.801Z,101466.98
2018-08-06T06:37:03.085Z,101461.91
2018-08-06T06:39:31.397Z,101466.45
2018-08-06T06:41:59.502Z,101455.91
2018-08-06T06:44:28.604Z,101458.07
2018-08-06T06:46:57.380Z,101454.86
2018-08-06T06:49:25.797Z,101462.42
2018-08-06T06:51:54.562Z,101458.99
2018-08-06T06:54:23.526Z,101457.44
2018-08-06T06:56:52.073Z,101455.56
2018-08-06T06:59:20.575Z,101449.59
2018-08-06T07:01:48.710Z,101448.38
2018-08-06T07:04:17.358Z,101441.63
2018-08-06T07:06:46.324Z,101445.20
2018-08-06T07:09:14.640Z,101449.27
2018-08-06T07:11:43.349Z,101449.92
2018-08-06T07:14:11.436Z,101444.81
2018-08-06T07:16:40.093Z,101436.61
2018-08-06T07:19:08.580Z,101434.49
2018-08-06T07:21:37.216Z,101435.99
2018-08-06T07:24:05.687Z,101438.38
2018-08-06T07:26:34.747Z,101429.72
2018-08-06T07:29:03.550Z,101432.50
2018-08-06T07:31:32.372Z,101429.37
2018-08-06T07:34:00.732Z,101422.69
2018-08-06T07:36:29.306Z,101429.16
2018-08-06T07:38:57.748Z,101422.38
2018-08-06T07:41:26.427Z,101422.37
2018-08-06T07:43:54.821Z,101417.59
2018-08-06T07:46:23.480Z,101417.23
2018-08-06T07:48:51.591Z,101415.02
2018-08-06T07:51:20.284Z,101406.48
2018-08-06T07:53:48.387Z,101413.20
2018-08-06T07:56:17.017Z,101401.13
2018-08-06T07:58:45.759Z,101401.48
2018-08-06T08:01:14.445Z,101395.33
2018-08-06T08:03:42.901Z,101396.20
2018-08-06T08:06:11.482Z,101393.50
2018-08-06T08:08:39.600Z,101395.23
2018-08-06T08:11:07.961Z,101397.05
2018-08-06T08:13:36.606Z,101396.18
2018-08-06T08:16:05.173Z,101392.60
2018-08-06T08:18:33.905Z,101381.81
2018-08-06T08:21:02.988Z,101386.77
2018-08-06T08:23:31.577Z,101389.75
2018-08-06T08:25:59.929Z,101382.42
2018-08-06T08:28:28.320Z,101384.16
2018-08-06T08:30:56.776Z,101378.25
2018-08-06T08:33:25.442Z,101381.81
2018-08-06T08:35:53.757Z,101371.60
2018-08-06T08:38:22.101Z,101368.31
2018-08-06T08:40:57.731Z,101360.45
2018-08-06T08:43:26.128Z,101351.41
2018-08-06T08:45:54.917Z,101352.98
2018-08-06T08:48:23.692Z,101351.70
2018-08-06T08:50:51.948Z,101348.42
2018-08-06T08:53:20.346Z,101349.92
2018-08-06T08:55:49.352Z,101340.45
2018-08-06T08:58:17.736Z,101351.69
2018-08-06T09:00:45.843Z,101341.09
2018-08-06T09:03:14.205Z,101331.00
2018-08-06T09:05:42.468Z,101331.61
2018-08-06T09:08:10.905Z,101330.66
2018-08-06T09:10:40.069Z,101328.50
2018-08-06T09:13:08.803Z,101332.81
2018-08-06T09:15:38.048Z,101335.37
2018-08-06T09:18:06.429Z,101332.69
2018-08-06T09:20:34.573Z,101321.61
2018-08-06T09:23:02.668Z,101314.15
2018-08-06T09:25:31.117Z,101319.05
2018-08-06T09:27:59.755Z,101309.05
2018-08-06T09:30:28.561Z,101304.14
2018-08-06T09:32:57.643Z,101304.45
2018-08-06T09:35:25.969Z,101310.75
2018-08-06T09:37:54.200Z,101296.45
2018-08-06T09:40:23.637Z,101290.44
2018-08-06T09:42:52.307Z,101302.09
2018-08-06T09:45:21.905Z,101294.45
2018-08-06T09:47:51.180Z,101297.78
2018-08-06T09:50:20.313Z,101299.55
2018-08-06T09:52:49.872Z,101289.41
2018-08-06T09:55:21.688Z,101284.36
2018-08-06T09:57:50.320Z,101282.97
2018-08-06T10:00:25.277Z,101284.16
2018-08-06T10:03:00.918Z,101280.95
2018-08-06T10:05:29.426Z,101271.52
2018-08-06T10:07:58.048Z,101267.22
2018-08-06T10:10:37.839Z,101264.13
2018-08-06T10:13:06.065Z,101270.38
2018-08-06T10:15:34.508Z,101264.08
2018-08-06T10:18:04.068Z,101260.86
2018-08-06T10:20:32.474Z,101263.25
2018-08-06T10:23:01.097Z,101250.27
2018-08-06T10:25:29.861Z,101235.59
2018-08-06T10:27:57.980Z,101235.73
2018-08-06T10:30:26.809Z,101232.05
2018-08-06T10:35:48.344Z,101226.98
2018-08-06T10:38:17.295Z,101225.16
2018-08-06T10:40:45.428Z,101223.44
2018-08-06T10:43:13.920Z,101215.40
2018-08-06T10:45:42.576Z,101205.83
2018-08-06T10:48:11.493Z,101208.62
2018-08-06T10:53:33.996Z,101198.84
2018-08-06T10:56:02.163Z,101191.55
2018-08-06T10:58:30.445Z,101182.20
2018-08-06T11:00:58.587Z,101184.56
2018-08-06T11:03:27.024Z,101183.65
2018-08-06T11:05:55.713Z,101181.55
2018-08-06T11:08:24.136Z,101174.32
2018-08-06T11:13:45.864Z,101157.42
2018-08-06T11:16:14.601Z,101156.59
2018-08-06T11:18:43.273Z,101149.27
2018-08-06T11:21:11.743Z,101151.94
2018-08-06T11:23:39.993Z,101155.67
2018-08-06T11:26:08.637Z,101150.18
2018-08-06T11:28:37.196Z,101132.64
2018-08-06T11:31:05.676Z,101128.89
2018-08-06T11:33:34.345Z,101129.94
2018-08-06T11:36:02.448Z,101126.62
2018-08-06T11:38:30.560Z,101126.91
2018-08-06T11:40:58.690Z,101126.06
2018-08-06T11:43:27.124Z,101123.44
2018-08-06T11:45:55.888Z,101122.23
2018-08-06T11:48:24.731Z,101123.81
2018-08-06T11:50:53.208Z,101124.49
2018-08-06T11:53:21.647Z,101106.20
2018-08-06T11:55:50.301Z,101109.00
2018-08-06T11:58:18.761Z,101106.31
2018-08-06T12:00:59.088Z,101093.44
2018-08-06T12:03:28.078Z,101108.38
2018-08-06T12:05:56.540Z,101100.27
2018-08-06T12:08:24.908Z,101090.61
2018-08-06T12:10:53.548Z,101092.58
2018-08-06T12:13:22.061Z,101098.88
2018-08-06T12:15:50.169Z,101090.34
2018-08-06T12:18:18.380Z,101081.37
2018-08-06T12:20:46.791Z,101085.73
2018-08-06T12:23:15.148Z,101082.37
2018-08-06T12:25:43.582Z,101082.47
2018-08-06T12:28:11.955Z,101077.59
2018-08-06T12:30:40.820Z,101072.91
2018-08-06T12:33:09.716Z,101071.06
2018-08-06T12:35:38.472Z,101068.49
2018-08-06T12:38:06.864Z,101062.60
2018-08-06T12:40:41.439Z,101062.34
2018-08-06T12:43:09.779Z,101056.89
2018-08-06T12:45:38.748Z,101055.61
2018-08-06T12:48:07.573Z,101045.91
2018-08-06T12:50:35.992Z,101040.91
2018-08-06T12:53:04.641Z,101050.50
2018-08-06T12:55:33.072Z,101041.30
2018-08-06T12:58:01.526Z,101037.94
2018-08-06T13:00:29.965Z,101027.34
2018-08-06T13:02:58.213Z,101030.20
2018-08-06T13:05:26.322Z,101022.35
2018-08-06T13:07:55.209Z,101020.01
2018-08-06T13:10:23.731Z,101017.57
2018-08-06T13:12:52.100Z,101008.33
2018-08-06T13:15:20.828Z,101013.89
2018-08-06T13:17:49.512Z,101014.98
2018-08-06T13:20:18.241Z,101010.34
2018-08-06T13:22:46.444Z,101006.32
2018-08-06T13:25:15.013Z,101007.94
2018-08-06T13:27:43.320Z,100998.49
2018-08-06T13:30:13.645Z,100997.14
2018-08-06T13:32:42.194Z,100998.50
2018-08-06T13:35:11.071Z,100988.61
2018-08-06T13:37:39.674Z,100993.88
2018-08-06T13:40:08.457Z,100987.92
2018-08-06T13:42:36.661Z,100995.12
2018-08-06T13:45:06.917Z,100989.11
2018-08-06T13:47:35.706Z,100977.70
2018-08-06T13:50:04.323Z,100971.33
2018-08-06T13:52:32.844Z,100967.59
2018-08-06T13:55:01.817Z,100965.09
2018-08-06T13:57:29.920Z,100951.92
2018-08-06T13:59:58.387Z,100953.93
2018-08-06T14:02:26.826Z,100953.42
2018-08-06T14:04:54.949Z,100952.64
2018-08-06T14:07:23.976Z,100949.80
2018-08-06T14:09:53.417Z,100943.09
2018-08-06T14:12:21.790Z,100949.51
2018-08-06T14:14:50.504Z,100944.69
2018-08-06T14:17:19.229Z,100941.38
2018-08-06T14:19:47.456Z,100937.78
2018-08-06T14:22:15.610Z,100934.54
2018-08-06T14:24:43.905Z,100928.70
2018-08-06T14:27:12.836Z,100925.37
2018-08-06T14:29:41.256Z,100920.05
2018-08-06T14:32:10.216Z,100921.27
2018-08-06T14:34:38.444Z,100913.23
2018-08-06T14:37:06.597Z,100906.22
2018-08-06T14:39:35.112Z,100912.97
2018-08-06T14:42:03.570Z,100897.52
2018-08-06T14:44:31.765Z,100910.72
2018-08-06T14:47:13.465Z,100905.88
2018-08-06T14:49:42.149Z,100909.77
2018-08-06T14:52:10.677Z,100901.36
2018-08-06T14:55:01.641Z,100903.62
2018-08-06T14:57:34.003Z,100895.20
2018-08-06T15:02:36.253Z,100879.52
2018-08-06T15:05:04.608Z,100889.86
2018-08-06T15:07:33.223Z,100879.98
2018-08-06T15:12:41.973Z,100883.16
2018-08-06T15:17:49.920Z,100867.77
2018-08-06T15:20:19.173Z,100868.32
2018-08-06T15:22:48.058Z,100864.39
2018-08-06T15:25:18.195Z,100863.25
2018-08-06T15:27:46.660Z,100868.01
2018-08-06T15:30:17.018Z,100867.42
2018-08-06T15:32:45.953Z,100858.41
2018-08-06T15:35:14.892Z,100853.95
2018-08-06T15:37:43.933Z,100854.80
2018-08-06T15:40:14.468Z,100849.19
2018-08-06T15:42:42.948Z,100844.11
2018-08-06T15:45:11.992Z,100845.19
2018-08-06T15:47:40.939Z,100843.23
2018-08-06T15:50:14.953Z,100847.22
2018-08-06T15:52:44.597Z,100839.06
2018-08-06T15:55:13.041Z,100840.98
2018-08-06T15:57:41.577Z,100832.29
2018-08-06T16:03:03.411Z,100828.17
2018-08-06T16:05:32.589Z,100819.20
2018-08-06T16:08:01.143Z,100823.36
2018-08-06T16:10:29.533Z,100816.05
2018-08-06T16:12:57.908Z,100805.95
2018-08-06T16:15:26.232Z,100809.55
2018-08-06T16:17:54.442Z,100809.19
2018-08-06T16:20:29.360Z,100804.89
2018-08-06T16:22:58.108Z,100806.44
2018-08-06T16:25:26.542Z,100808.58
2018-08-06T16:27:55.149Z,100807.98
2018-08-06T16:30:24.774Z,100800.19
2018-08-06T16:32:52.954Z,100792.73
2018-08-06T16:35:22.972Z,100789.78
2018-08-06T16:37:52.780Z,100785.05
2018-08-06T16:40:21.729Z,100779.97
2018-08-06T16:42:50.445Z,100782.48
2018-08-06T16:45:18.869Z,100780.80
2018-08-06T16:48:01.010Z,100780.22
2018-08-06T16:50:29.432Z,100775.19
2018-08-06T16:52:57.837Z,100774.53
2018-08-06T16:55:26.276Z,100782.32
2018-08-06T16:57:54.620Z,100783.36
2018-08-06T17:00:23.449Z,100781.02
2018-08-06T17:02:52.361Z,100783.76
2018-08-06T17:05:21.383Z,100777.39
2018-08-06T17:07:50.556Z,100774.30
2018-08-06T17:10:20.218Z,100775.91
2018-08-06T17:12:49.962Z,100771.80
2018-08-06T17:15:19.648Z,100770.39
2018-08-06T17:17:48.740Z,100773.41
2018-08-06T17:20:19.972Z,100771.42
2018-08-06T17:22:49.313Z,100764.91
2018-08-06T17:25:18.379Z,100764.59
2018-08-06T17:27:47.336Z,100774.02
2018-08-06T17:30:16.376Z,100768.09
2018-08-06T17:32:44.504Z,100770.77
2018-08-06T17:35:18.657Z,100767.38
2018-08-06T17:37:47.281Z,100769.34
2018-08-06T17:40:17.514Z,100764.89
2018-08-06T17:42:45.876Z,100767.14
2018-08-06T17:45:16.516Z,100761.25
2018-08-06T17:47:45.217Z,100761.20
2018-08-06T17:50:16.063Z,100762.30
2018-08-06T17:52:45.383Z,100767.34
2018-08-06T17:55:14.617Z,100759.49
2018-08-06T17:57:43.044Z,100762.80
2018-08-06T18:00:11.893Z,100761.36
2018-08-06T18:02:47.159Z,100762.13
2018-08-06T18:05:16.324Z,100762.90
2018-08-06T18:07:45.250Z,100760.31
2018-08-06T18:10:15.254Z,100757.09
2018-08-06T18:12:44.452Z,100756.52
2018-08-06T18:15:12.885Z,100762.31
2018-08-06T18:17:41.240Z,100760.01
2018-08-06T18:20:12.844Z,100761.06
2018-08-06T18:22:41.016Z,100763.76
2018-08-06T18:25:11.177Z,100763.39
2018-08-06T18:27:39.352Z,100757.44
2018-08-06T18:30:19.080Z,100761.51
2018-08-06T18:32:47.551Z,100762.15
2018-08-06T18:35:17.163Z,100761.15
2018-08-06T18:37:45.939Z,100766.55
2018-08-06T18:40:15.026Z,100766.34
2018-08-06T18:42:44.385Z,100766.44
2018-08-06T18:45:14.676Z,100764.25
2018-08-06T18:47:43.893Z,100766.01
2018-08-06T18:50:18.607Z,100765.36
2018-08-06T18:52:47.921Z,100758.70
2018-08-06T18:55:16.616Z,100766.52
2018-08-06T18:57:45.094Z,100762.64
2018-08-06T19:00:18.723Z,100763.45
2018-08-06T19:02:47.512Z,100762.59
2018-08-06T19:05:16.459Z,100754.77
2018-08-06T19:07:45.306Z,100766.11
2018-08-06T19:10:13.728Z,100764.62
2018-08-06T19:12:47.386Z,100762.85
2018-08-06T19:15:16.249Z,100770.00
2018-08-06T19:17:50.129Z,100773.88
2018-08-06T19:20:18.766Z,100768.81
2018-08-06T19:22:47.480Z,100770.42
2018-08-06T19:25:20.929Z,100775.93
2018-08-06T19:27:50.557Z,100781.46
2018-08-06T19:30:19.016Z,100775.89
2018-08-06T19:32:47.785Z,100773.14
2018-08-06T19:35:16.233Z,100777.34
2018-08-06T19:37:45.068Z,100780.38
2018-08-06T19:40:13.285Z,100777.47
2018-08-06T19:42:47.588Z,100779.08
2018-08-06T19:45:16.481Z,100778.44
2018-08-06T19:47:45.572Z,100778.27
2018-08-06T19:50:24.686Z,100777.80
2018-08-06T19:52:53.501Z,100773.42
2018-08-06T19:55:28.145Z,100769.70
2018-08-06T19:57:56.294Z,100770.76
2018-08-06T20:00:24.757Z,100772.91
2018-08-06T20:02:52.875Z,100772.78
2018-08-06T20:05:21.540Z,100767.98
2018-08-06T20:07:50.072Z,100775.94
2018-08-06T20:10:19.266Z,100767.00
2018-08-06T20:12:47.536Z,100766.34
2018-08-06T20:15:18.111Z,100763.19
2018-08-06T20:17:47.067Z,100763.25
2018-08-06T20:20:15.629Z,100769.97
2018-08-06T20:22:44.156Z,100767.78
2018-08-06T20:25:16.336Z,100772.20
2018-08-06T20:27:45.217Z,100769.15
2018-08-06T20:30:14.845Z,100770.05
2018-08-06T20:32:42.936Z,100764.26
2018-08-06T20:35:13.237Z,100763.73
2018-08-06T20:37:41.842Z,100762.70
2018-08-06T20:40:11.269Z,100768.98
2018-08-06T20:42:40.530Z,100764.77
2018-08-06T20:45:12.688Z,100760.47
2018-08-06T20:47:41.410Z,100766.98
2018-08-06T20:50:16.073Z,100764.04
2018-08-06T20:52:45.203Z,100763.34
2018-08-06T20:55:13.796Z,100761.44
2018-08-06T20:57:43.011Z,100767.59
2018-08-06T21:00:16.175Z,100772.06
2018-08-06T21:02:45.180Z,100768.78
2018-08-06T21:05:13.420Z,100768.14
2018-08-06T21:07:41.813Z,100767.30
2018-08-06T21:10:11.887Z,100768.67
2018-08-06T21:12:40.718Z,100767.83
2018-08-06T21:15:10.108Z,100771.22
2018-08-06T21:17:38.728Z,100769.80
2018-08-06T21:20:10.270Z,100777.55
2018-08-06T21:22:38.828Z,100771.08
2018-08-06T21:25:08.055Z,100774.88
2018-08-06T21:27:36.516Z,100772.45
2018-08-06T21:30:07.176Z,100767.86
2018-08-06T21:32:35.633Z,100772.94
2018-08-06T21:35:04.002Z,100776.22
2018-08-06T21:37:32.726Z,100774.71
2018-08-06T21:40:00.857Z,100762.94
2018-08-06T21:42:29.456Z,100763.45
2018-08-06T21:44:57.665Z,100763.92
2018-08-06T21:47:26.822Z,100770.27
2018-08-06T21:49:54.952Z,100759.88
2018-08-06T21:52:23.729Z,100761.33
2018-08-06T21:54:51.849Z,100761.65
2018-08-06T21:57:20.912Z,100754.00
2018-08-06T21:59:49.042Z,100756.83
2018-08-06T22:02:17.403Z,100754.04
2018-08-06T22:04:45.916Z,100758.16
2018-08-06T22:07:14.849Z,100757.47
2018-08-06T22:09:43.319Z,100752.13
2018-08-06T22:12:11.799Z,100754.84
2018-08-06T22:14:39.904Z,100753.31
2018-08-06T22:17:08.024Z,100752.16
2018-08-06T22:19:36.145Z,100747.91
2018-08-06T22:22:04.549Z,100749.28
2018-08-06T22:24:32.854Z,100749.67
2018-08-06T22:27:01.537Z,100757.28
2018-08-06T22:29:30.276Z,100747.75
2018-08-06T22:31:58.664Z,100745.99
2018-08-06T22:34:27.105Z,100740.32
2018-08-06T22:36:55.519Z,100742.93
2018-08-06T22:39:25.236Z,100733.31
2018-08-06T22:41:53.905Z,100739.56
2018-08-06T22:44:22.617Z,100738.13
2018-08-06T22:46:51.072Z,100738.72
2018-08-06T22:49:19.184Z,100737.08
2018-08-06T22:51:47.741Z,100738.83
2018-08-06T22:54:15.844Z,100736.80
2018-08-06T22:56:44.309Z,100738.27
2018-08-06T22:59:12.425Z,100737.15
2018-08-06T23:01:40.622Z,100735.70
2018-08-06T23:04:09.296Z,100734.80
2018-08-06T23:06:37.657Z,100735.27
2018-08-06T23:09:09.190Z,100728.33
2018-08-06T23:11:38.116Z,100724.80
2018-08-06T23:14:06.228Z,100723.17
2018-08-06T23:16:34.369Z,100722.05
2018-08-06T23:19:02.470Z,100720.23
2018-08-06T23:21:31.099Z,100716.31
2018-08-06T23:23:59.409Z,100714.78
2018-08-06T23:26:28.596Z,100717.86
2018-08-06T23:28:57.285Z,100714.61
2018-08-06T23:31:25.429Z,100722.84
2018-08-06T23:33:53.557Z,100714.98
2018-08-06T23:36:21.693Z,100711.95
2018-08-06T23:38:50.367Z,100717.11
2018-08-06T23:41:19.611Z,100714.62
2018-08-06T23:43:48.265Z,100711.80
2018-08-06T23:46:16.380Z,100717.02
2018-08-06T23:48:44.499Z,100712.11
2018-08-06T23:51:12.956Z,100705.13
2018-08-06T23:53:41.440Z,100706.38
2018-08-06T23:56:09.561Z,100703.67
2018-08-06T23:58:37.949Z,100697.38
